createdAt,value
2019-04-22T00:08:03.235Z,70.20
2019-04-22T00:23:14.050Z,71.26
2019-04-22T00:38:17.262Z,73.05
2019-04-22T00:53:23.606Z,75.15
2019-04-22T01:08:30.597Z,76.05
2019-04-22T01:23:28.185Z,75.67
2019-04-22T01:38:31.462Z,76.32
2019-04-22T01:53:56.615Z,77.85
2019-04-22T02:08:55.250Z,78.58
2019-04-22T02:23:53.764Z,78.41
2019-04-22T02:39:05.591Z,79.38
2019-04-22T03:09:18.512Z,79.51
2019-04-22T03:24:33.337Z,81.84
2019-04-22T03:54:40.375Z,80.73
2019-04-22T04:40:05.741Z,82.39
2019-04-22T05:25:04.735Z,71.09
2019-04-22T05:39:56.539Z,61.72
2019-04-22T05:55:14.354Z,54.23
2019-04-22T06:10:21.345Z,43.26
2019-04-22T06:25:27.771Z,40.22
2019-04-22T06:55:36.820Z,37.46
2019-04-22T07:10:50.648Z,35.63
2019-04-22T07:40:51.827Z,33.17
2019-04-22T07:55:54.973Z,33.28
2019-04-22T08:11:08.156Z,31.60
2019-04-22T08:26:00.845Z,31.01
2019-04-22T08:41:17.792Z,29.09
2019-04-22T08:56:35.081Z,24.85
2019-04-22T09:11:26.705Z,27.06
2019-04-22T09:26:31.003Z,24.12
2019-04-22T09:41:37.497Z,24.90
2019-04-22T09:56:39.821Z,23.99
2019-04-22T10:11:56.382Z,25.24
2019-04-22T10:26:46.882Z,25.84
2019-04-22T10:41:28.416Z,25.21
2019-04-22T10:56:28.851Z,25.51
2019-04-22T11:11:41.072Z,26.69
2019-04-22T11:26:34.604Z,27.19
2019-04-22T11:41:35.994Z,28.33
2019-04-22T11:56:37.044Z,27.00
2019-04-22T12:11:36.887Z,27.59
2019-04-22T12:26:38.017Z,27.56
2019-04-22T12:41:38.374Z,27.15
2019-04-22T12:56:39.524Z,25.76
2019-04-22T13:11:40.759Z,24.65
2019-04-22T13:26:43.055Z,24.26
2019-04-22T13:41:48.736Z,25.34
2019-04-22T13:57:03.445Z,25.72
2019-04-22T14:12:00.136Z,25.13
2019-04-22T14:27:16.148Z,25.42
2019-04-22T14:42:21.707Z,25.95
2019-04-22T14:57:10.859Z,26.28
2019-04-22T15:12:21.703Z,25.02
2019-04-22T15:27:18.452Z,25.99
2019-04-22T15:42:27.619Z,26.54
2019-04-22T15:57:24.841Z,27.69
2019-04-22T16:12:32.122Z,29.52
2019-04-22T16:27:30.395Z,31.20
2019-04-22T16:42:42.645Z,35.70
2019-04-22T16:57:37.457Z,37.46
2019-04-22T17:12:48.752Z,38.09
2019-04-22T17:27:43.857Z,40.05
2019-04-22T17:43:07.133Z,40.69
2019-04-22T17:58:16.082Z,43.04
2019-04-22T18:13:27.844Z,43.38
2019-04-22T18:28:26.878Z,44.62
2019-04-22T18:43:28.886Z,46.80
2019-04-22T18:58:27.382Z,48.34
2019-04-22T19:28:48.394Z,50.95
2019-04-22T19:43:49.172Z,52.33
2019-04-22T19:58:49.286Z,54.18
2019-04-22T20:14:02.674Z,54.82
2019-04-22T20:29:04.523Z,55.74
2019-04-22T20:44:16.485Z,55.22
2019-04-22T20:59:14.961Z,56.55
2019-04-22T21:14:15.066Z,57.47
2019-04-22T21:29:20.784Z,57.24
2019-04-22T21:44:32.660Z,57.75
2019-04-22T21:59:40.491Z,56.98
2019-04-22T22:14:46.051Z,57.62
2019-04-22T22:30:27.099Z,57.42
2019-04-22T22:44:40.432Z,57.52
2019-04-22T22:59:59.378Z,57.65
2019-04-22T23:15:04.695Z,58.08
2019-04-22T23:30:01.798Z,59.33
2019-04-22T23:45:17.353Z,58.92
